sensor_id;sensor_type;location;lat;lon;timestamp;pressure;altitude;pressure_sealevel;temperature;humidity
49122;BME280;35529;44.342;25.944;2023-01-28T00:01:12;100325.72;;;1.68;100.00
49122;BME280;35529;44.342;25.944;2023-01-28T00:03:39;100314.28;;;1.70;100.00
49122;BME280;35529;44.342;25.944;2023-01-28T00:06:12;100316.50;;;1.64;100.00
49122;BME280;35529;44.342;25.944;2023-01-28T00:08:39;100316.09;;;1.59;100.00
49122;BME280;35529;44.342;25.944;2023-01-28T00:11:05;100314.16;;;1.61;100.00
49122;BME280;35529;44.342;25.944;2023-01-28T00:13:32;100310.75;;;1.61;100.00
49122;BME280;35529;44.342;25.944;2023-01-28T00:15:59;100320.06;;;1.63;100.00
49122;BME280;35529;44.342;25.944;2023-01-28T00:18:26;100322.28;;;1.68;100.00
49122;BME280;35529;44.342;25.944;2023-01-28T00:21:03;100318.00;;;1.67;100.00
49122;BME280;35529;44.342;25.944;2023-01-28T00:23:31;100323.53;;;1.64;100.00
49122;BME280;35529;44.342;25.944;2023-01-28T00:26:00;100319.41;;;1.61;100.00
49122;BME280;35529;44.342;25.944;2023-01-28T00:28:27;100314.84;;;1.63;100.00
49122;BME280;35529;44.342;25.944;2023-01-28T00:30:53;100326.97;;;1.64;100.00
49122;BME280;35529;44.342;25.944;2023-01-28T00:33:19;100325.03;;;1.66;100.00
49122;BME280;35529;44.342;25.944;2023-01-28T00:35:45;100325.44;;;1.62;100.00
49122;BME280;35529;44.342;25.944;2023-01-28T00:38:14;100318.72;;;1.59;100.00
49122;BME280;35529;44.342;25.944;2023-01-28T00:40:42;100326.44;;;1.61;100.00
49122;BME280;35529;44.342;25.944;2023-01-28T00:43:11;100328.22;;;1.60;100.00
49122;BME280;35529;44.342;25.944;2023-01-28T00:45:39;100324.38;;;1.55;100.00
49122;BME280;35529;44.342;25.944;2023-01-28T00:48:08;100321.50;;;1.48;100.00
49122;BME280;35529;44.342;25.944;2023-01-28T00:50:39;100331.69;;;1.51;100.00
49122;BME280;35529;44.342;25.944;2023-01-28T00:53:06;100326.03;;;1.56;100.00
49122;BME280;35529;44.342;25.944;2023-01-28T00:55:34;100335.50;;;1.57;100.00
49122;BME280;35529;44.342;25.944;2023-01-28T00:58:00;100336.34;;;1.57;100.00
49122;BME280;35529;44.342;25.944;2023-01-28T01:00:29;100324.78;;;1.60;100.00
49122;BME280;35529;44.342;25.944;2023-01-28T01:02:58;100331.53;;;1.62;100.00
49122;BME280;35529;44.342;25.944;2023-01-28T01:05:29;100323.94;;;1.59;100.00
49122;BME280;35529;44.342;25.944;2023-01-28T01:07:58;100330.88;;;1.50;100.00
49122;BME280;35529;44.342;25.944;2023-01-28T01:10:28;100330.56;;;1.54;100.00
49122;BME280;35529;44.342;25.944;2023-01-28T01:12:54;100326.56;;;1.59;100.00
49122;BME280;35529;44.342;25.944;2023-01-28T01:15:24;100330.16;;;1.58;100.00
49122;BME280;35529;44.342;25.944;2023-01-28T01:17:50;100333.16;;;1.63;100.00
49122;BME280;35529;44.342;25.944;2023-01-28T01:20:17;100328.91;;;1.62;100.00
49122;BME280;35529;44.342;25.944;2023-01-28T01:22:44;100320.50;;;1.59;100.00
49122;BME280;35529;44.342;25.944;2023-01-28T01:25:10;100322.84;;;1.62;100.00
49122;BME280;35529;44.342;25.944;2023-01-28T01:27:37;100313.22;;;1.62;100.00
49122;BME280;35529;44.342;25.944;2023-01-28T01:30:03;100321.88;;;1.63;100.00
49122;BME280;35529;44.342;25.944;2023-01-28T01:32:30;100327.25;;;1.61;100.00
49122;BME280;35529;44.342;25.944;2023-01-28T01:34:56;100325.44;;;1.62;100.00
49122;BME280;35529;44.342;25.944;2023-01-28T01:37:23;100326.97;;;1.64;100.00
49122;BME280;35529;44.342;25.944;2023-01-28T01:39:49;100333.84;;;1.65;100.00
49122;BME280;35529;44.342;25.944;2023-01-28T01:42:15;100326.81;;;1.66;100.00
49122;BME280;35529;44.342;25.944;2023-01-28T01:45:00;100325.72;;;1.68;100.00
49122;BME280;35529;44.342;25.944;2023-01-28T01:50:00;100332.44;;;1.71;100.00
49122;BME280;35529;44.342;25.944;2023-01-28T01:52:29;100331.78;;;1.69;100.00
49122;BME280;35529;44.342;25.944;2023-01-28T01:54:58;100339.50;;;1.71;100.00
49122;BME280;35529;44.342;25.944;2023-01-28T01:57:28;100334.25;;;1.71;100.00
49122;BME280;35529;44.342;25.944;2023-01-28T01:59:55;100333.31;;;1.72;100.00
49122;BME280;35529;44.342;25.944;2023-01-28T02:02:35;100339.50;;;1.71;100.00
49122;BME280;35529;44.342;25.944;2023-01-28T02:05:02;100336.59;;;1.74;100.00
49122;BME280;35529;44.342;25.944;2023-01-28T02:07:28;100332.03;;;1.76;100.00
49122;BME280;35529;44.342;25.944;2023-01-28T02:09:54;100336.44;;;1.75;100.00
49122;BME280;35529;44.342;25.944;2023-01-28T02:12:21;100342.66;;;1.74;100.00
49122;BME280;35529;44.342;25.944;2023-01-28T02:14:51;100334.09;;;1.72;100.00
49122;BME280;35529;44.342;25.944;2023-01-28T02:17:18;100342.50;;;1.76;100.00
49122;BME280;35529;44.342;25.944;2023-01-28T02:27:35;100335.31;;;1.88;100.00
49122;BME280;35529;44.342;25.944;2023-01-28T02:30:04;100350.47;;;1.84;100.00
49122;BME280;35529;44.342;25.944;2023-01-28T02:32:43;100349.78;;;1.82;100.00
49122;BME280;35529;44.342;25.944;2023-01-28T02:35:13;100353.91;;;1.84;100.00
49122;BME280;35529;44.342;25.944;2023-01-28T02:37:45;100342.63;;;1.84;100.00
49122;BME280;35529;44.342;25.944;2023-01-28T02:40:13;100342.22;;;1.79;100.00
49122;BME280;35529;44.342;25.944;2023-01-28T02:42:44;100348.81;;;1.83;100.00
49122;BME280;35529;44.342;25.944;2023-01-28T02:45:13;100346.34;;;1.81;100.00
49122;BME280;35529;44.342;25.944;2023-01-28T02:47:41;100354.34;;;1.80;100.00
49122;BME280;35529;44.342;25.944;2023-01-28T02:50:22;100356.53;;;1.84;100.00
49122;BME280;35529;44.342;25.944;2023-01-28T03:06:13;100359.13;;;1.94;100.00
49122;BME280;35529;44.342;25.944;2023-01-28T03:08:49;100351.41;;;1.93;100.00
49122;BME280;35529;44.342;25.944;2023-01-28T03:11:36;100350.59;;;1.92;100.00
49122;BME280;35529;44.342;25.944;2023-01-28T03:14:23;100347.66;;;1.95;100.00
49122;BME280;35529;44.342;25.944;2023-01-28T03:17:11;100353.31;;;2.00;100.00
49122;BME280;35529;44.342;25.944;2023-01-28T03:20:00;100355.09;;;2.00;100.00
49122;BME280;35529;44.342;25.944;2023-01-28T03:22:45;100364.88;;;2.08;100.00
49122;BME280;35529;44.342;25.944;2023-01-28T03:25:31;100357.38;;;2.13;100.00
49122;BME280;35529;44.342;25.944;2023-01-28T03:28:17;100362.59;;;2.23;100.00
49122;BME280;35529;44.342;25.944;2023-01-28T03:31:13;100352.53;;;2.28;100.00
49122;BME280;35529;44.342;25.944;2023-01-28T03:33:59;100368.59;;;2.33;100.00
49122;BME280;35529;44.342;25.944;2023-01-28T03:36:44;100358.81;;;2.35;100.00
49122;BME280;35529;44.342;25.944;2023-01-28T03:39:24;100360.31;;;2.38;100.00
49122;BME280;35529;44.342;25.944;2023-01-28T03:42:24;100356.03;;;2.37;100.00
49122;BME280;35529;44.342;25.944;2023-01-28T03:44:43;100366.69;;;2.35;100.00
49122;BME280;35529;44.342;25.944;2023-01-28T03:47:19;100371.09;;;2.34;100.00
49122;BME280;35529;44.342;25.944;2023-01-28T03:49:47;100375.91;;;2.39;100.00
49122;BME280;35529;44.342;25.944;2023-01-28T03:52:21;100374.78;;;2.42;100.00
49122;BME280;35529;44.342;25.944;2023-01-28T03:54:47;100378.66;;;2.38;100.00
49122;BME280;35529;44.342;25.944;2023-01-28T03:57:14;100382.09;;;2.38;100.00
49122;BME280;35529;44.342;25.944;2023-01-28T03:59:41;100391.22;;;2.34;100.00
49122;BME280;35529;44.342;25.944;2023-01-28T04:02:07;100378.84;;;2.26;100.00
49122;BME280;35529;44.342;25.944;2023-01-28T04:04:38;100382.19;;;2.18;100.00
49122;BME280;35529;44.342;25.944;2023-01-28T04:07:05;100395.91;;;2.03;100.00
49122;BME280;35529;44.342;25.944;2023-01-28T04:09:33;100390.56;;;1.94;100.00
49122;BME280;35529;44.342;25.944;2023-01-28T04:12:00;100389.16;;;1.90;100.00
49122;BME280;35529;44.342;25.944;2023-01-28T04:14:26;100393.44;;;1.91;100.00
49122;BME280;35529;44.342;25.944;2023-01-28T04:16:52;100396.34;;;1.88;100.00
49122;BME280;35529;44.342;25.944;2023-01-28T04:19:22;100407.63;;;1.89;100.00
49122;BME280;35529;44.342;25.944;2023-01-28T04:21:48;100398.78;;;1.99;100.00
49122;BME280;35529;44.342;25.944;2023-01-28T04:24:15;100404.16;;;2.08;100.00
49122;BME280;35529;44.342;25.944;2023-01-28T04:26:41;100403.16;;;2.09;100.00
49122;BME280;35529;44.342;25.944;2023-01-28T04:29:07;100416.69;;;2.04;100.00
49122;BME280;35529;44.342;25.944;2023-01-28T04:31:33;100407.44;;;2.10;100.00
49122;BME280;35529;44.342;25.944;2023-01-28T04:34:00;100412.28;;;2.14;100.00
49122;BME280;35529;44.342;25.944;2023-01-28T04:36:26;100411.72;;;2.11;100.00
49122;BME280;35529;44.342;25.944;2023-01-28T04:38:52;100414.63;;;2.08;100.00
49122;BME280;35529;44.342;25.944;2023-01-28T04:41:18;100414.63;;;1.98;100.00
49122;BME280;35529;44.342;25.944;2023-01-28T04:43:44;100417.59;;;1.85;100.00
49122;BME280;35529;44.342;25.944;2023-01-28T04:46:10;100412.88;;;1.89;100.00
49122;BME280;35529;44.342;25.944;2023-01-28T04:48:36;100418.25;;;1.87;100.00
49122;BME280;35529;44.342;25.944;2023-01-28T04:51:03;100410.69;;;1.84;100.00
49122;BME280;35529;44.342;25.944;2023-01-28T04:53:29;100426.41;;;1.84;100.00
49122;BME280;35529;44.342;25.944;2023-01-28T04:55:56;100423.50;;;1.87;100.00
49122;BME280;35529;44.342;25.944;2023-01-28T04:58:22;100425.56;;;1.83;100.00
49122;BME280;35529;44.342;25.944;2023-01-28T05:00:54;100423.09;;;1.82;100.00
49122;BME280;35529;44.342;25.944;2023-01-28T05:03:21;100430.78;;;1.83;100.00
49122;BME280;35529;44.342;25.944;2023-01-28T05:05:47;100423.63;;;1.86;100.00
49122;BME280;35529;44.342;25.944;2023-01-28T05:08:13;100426.94;;;1.88;100.00
49122;BME280;35529;44.342;25.944;2023-01-28T05:10:39;100436.72;;;1.86;100.00
49122;BME280;35529;44.342;25.944;2023-01-28T05:13:08;100441.56;;;1.80;100.00
49122;BME280;35529;44.342;25.944;2023-01-28T05:15:34;100451.59;;;1.75;100.00
49122;BME280;35529;44.342;25.944;2023-01-28T05:18:00;100460.31;;;1.76;100.00
49122;BME280;35529;44.342;25.944;2023-01-28T05:20:26;100462.94;;;1.56;100.00
49122;BME280;35529;44.342;25.944;2023-01-28T05:22:52;100465.25;;;1.30;100.00
49122;BME280;35529;44.342;25.944;2023-01-28T05:25:18;100463.03;;;1.15;100.00
49122;BME280;35529;44.342;25.944;2023-01-28T05:27:50;100460.22;;;0.88;100.00
49122;BME280;35529;44.342;25.944;2023-01-28T05:30:17;100470.22;;;0.73;100.00
49122;BME280;35529;44.342;25.944;2023-01-28T05:32:44;100475.69;;;0.70;100.00
49122;BME280;35529;44.342;25.944;2023-01-28T05:35:10;100479.13;;;0.60;100.00
49122;BME280;35529;44.342;25.944;2023-01-28T05:37:36;100487.03;;;0.49;100.00
49122;BME280;35529;44.342;25.944;2023-01-28T05:40:02;100493.53;;;0.55;100.00
49122;BME280;35529;44.342;25.944;2023-01-28T05:42:28;100489.00;;;0.57;100.00
49122;BME280;35529;44.342;25.944;2023-01-28T05:44:57;100491.06;;;0.53;100.00
49122;BME280;35529;44.342;25.944;2023-01-28T05:47:25;100484.59;;;0.57;100.00
49122;BME280;35529;44.342;25.944;2023-01-28T05:49:52;100496.44;;;0.61;100.00
49122;BME280;35529;44.342;25.944;2023-01-28T05:52:18;100493.16;;;0.59;100.00
49122;BME280;35529;44.342;25.944;2023-01-28T05:54:44;100503.59;;;0.59;100.00
49122;BME280;35529;44.342;25.944;2023-01-28T05:57:10;100502.25;;;0.65;100.00
49122;BME280;35529;44.342;25.944;2023-01-28T05:59:36;100503.75;;;0.58;100.00
49122;BME280;35529;44.342;25.944;2023-01-28T06:02:02;100512.13;;;0.61;100.00
49122;BME280;35529;44.342;25.944;2023-01-28T06:04:28;100515.13;;;0.57;100.00
49122;BME280;35529;44.342;25.944;2023-01-28T06:06:54;100514.13;;;0.48;100.00
49122;BME280;35529;44.342;25.944;2023-01-28T06:09:21;100518.44;;;0.59;100.00
49122;BME280;35529;44.342;25.944;2023-01-28T06:11:49;100522.41;;;0.53;100.00
49122;BME280;35529;44.342;25.944;2023-01-28T06:14:15;100518.41;;;0.49;100.00
49122;BME280;35529;44.342;25.944;2023-01-28T06:16:42;100526.41;;;0.57;100.00
49122;BME280;35529;44.342;25.944;2023-01-28T06:19:10;100531.19;;;0.52;100.00
49122;BME280;35529;44.342;25.944;2023-01-28T06:21:39;100530.69;;;0.58;100.00
49122;BME280;35529;44.342;25.944;2023-01-28T06:24:08;100531.41;;;0.60;100.00
49122;BME280;35529;44.342;25.944;2023-01-28T06:26:36;100538.81;;;0.65;100.00
49122;BME280;35529;44.342;25.944;2023-01-28T06:29:02;100540.66;;;0.74;100.00
49122;BME280;35529;44.342;25.944;2023-01-28T06:31:34;100547.72;;;0.83;100.00
49122;BME280;35529;44.342;25.944;2023-01-28T06:34:00;100550.78;;;0.89;100.00
49122;BME280;35529;44.342;25.944;2023-01-28T06:36:26;100543.31;;;0.84;100.00
49122;BME280;35529;44.342;25.944;2023-01-28T06:38:52;100558.50;;;1.00;100.00
49122;BME280;35529;44.342;25.944;2023-01-28T06:41:18;100560.16;;;1.01;100.00
49122;BME280;35529;44.342;25.944;2023-01-28T06:43:46;100564.44;;;1.02;100.00
49122;BME280;35529;44.342;25.944;2023-01-28T06:46:13;100569.00;;;1.10;100.00
49122;BME280;35529;44.342;25.944;2023-01-28T06:48:39;100561.03;;;1.11;100.00
49122;BME280;35529;44.342;25.944;2023-01-28T06:51:07;100552.50;;;1.19;100.00
49122;BME280;35529;44.342;25.944;2023-01-28T06:53:37;100565.19;;;1.24;100.00
49122;BME280;35529;44.342;25.944;2023-01-28T06:56:06;100556.91;;;1.19;100.00
49122;BME280;35529;44.342;25.944;2023-01-28T06:58:33;100560.47;;;1.17;100.00
49122;BME280;35529;44.342;25.944;2023-01-28T07:00:59;100569.59;;;1.23;100.00
49122;BME280;35529;44.342;25.944;2023-01-28T07:03:25;100575.38;;;1.27;100.00
49122;BME280;35529;44.342;25.944;2023-01-28T07:05:52;100579.66;;;1.28;100.00
49122;BME280;35529;44.342;25.944;2023-01-28T07:08:18;100579.38;;;1.21;100.00
49122;BME280;35529;44.342;25.944;2023-01-28T07:10:47;100586.69;;;1.27;100.00
49122;BME280;35529;44.342;25.944;2023-01-28T07:13:14;100588.63;;;1.35;100.00
49122;BME280;35529;44.342;25.944;2023-01-28T07:15:40;100595.00;;;1.42;100.00
49122;BME280;35529;44.342;25.944;2023-01-28T07:18:08;100592.91;;;1.36;100.00
49122;BME280;35529;44.342;25.944;2023-01-28T07:20:35;100600.19;;;1.32;100.00
49122;BME280;35529;44.342;25.944;2023-01-28T07:23:01;100597.44;;;1.34;100.00
49122;BME280;35529;44.342;25.944;2023-01-28T07:25:27;100597.91;;;1.49;100.00
49122;BME280;35529;44.342;25.944;2023-01-28T07:27:53;100604.75;;;1.50;100.00
49122;BME280;35529;44.342;25.944;2023-01-28T07:30:19;100604.13;;;1.67;100.00
49122;BME280;35529;44.342;25.944;2023-01-28T07:32:46;100605.09;;;1.76;100.00
49122;BME280;35529;44.342;25.944;2023-01-28T07:35:12;100601.38;;;1.69;100.00
49122;BME280;35529;44.342;25.944;2023-01-28T07:37:38;100600.09;;;1.63;100.00
49122;BME280;35529;44.342;25.944;2023-01-28T07:40:05;100613.19;;;1.63;100.00
49122;BME280;35529;44.342;25.944;2023-01-28T07:42:31;100597.09;;;1.58;100.00
49122;BME280;35529;44.342;25.944;2023-01-28T07:44:57;100605.78;;;1.68;100.00
49122;BME280;35529;44.342;25.944;2023-01-28T07:47:24;100610.63;;;1.83;100.00
49122;BME280;35529;44.342;25.944;2023-01-28T07:49:50;100617.38;;;1.76;100.00
49122;BME280;35529;44.342;25.944;2023-01-28T07:52:16;100618.47;;;1.73;100.00
49122;BME280;35529;44.342;25.944;2023-01-28T07:54:42;100621.31;;;1.60;100.00
49122;BME280;35529;44.342;25.944;2023-01-28T07:57:08;100619.69;;;1.69;100.00
49122;BME280;35529;44.342;25.944;2023-01-28T07:59:35;100627.41;;;1.61;100.00
49122;BME280;35529;44.342;25.944;2023-01-28T08:02:01;100625.88;;;1.58;100.00
49122;BME280;35529;44.342;25.944;2023-01-28T08:04:27;100618.19;;;1.66;100.00
49122;BME280;35529;44.342;25.944;2023-01-28T08:06:55;100630.88;;;1.81;100.00
49122;BME280;35529;44.342;25.944;2023-01-28T08:09:21;100632.28;;;1.95;100.00
49122;BME280;35529;44.342;25.944;2023-01-28T08:11:50;100635.56;;;1.97;100.00
49122;BME280;35529;44.342;25.944;2023-01-28T08:14:19;100638.06;;;1.98;100.00
49122;BME280;35529;44.342;25.944;2023-01-28T08:16:45;100639.59;;;2.11;100.00
49122;BME280;35529;44.342;25.944;2023-01-28T08:19:11;100645.25;;;2.16;100.00
49122;BME280;35529;44.342;25.944;2023-01-28T08:21:37;100637.94;;;2.29;100.00
49122;BME280;35529;44.342;25.944;2023-01-28T08:24:03;100654.22;;;2.43;100.00
49122;BME280;35529;44.342;25.944;2023-01-28T08:26:32;100648.00;;;2.54;100.00
49122;BME280;35529;44.342;25.944;2023-01-28T08:28:58;100645.59;;;2.80;100.00
49122;BME280;35529;44.342;25.944;2023-01-28T08:31:24;100657.50;;;2.64;100.00
49122;BME280;35529;44.342;25.944;2023-01-28T08:33:53;100670.06;;;2.71;100.00
49122;BME280;35529;44.342;25.944;2023-01-28T08:36:19;100663.84;;;2.62;100.00
49122;BME280;35529;44.342;25.944;2023-01-28T08:38:48;100663.72;;;2.54;100.00
49122;BME280;35529;44.342;25.944;2023-01-28T08:41:20;100668.13;;;2.53;100.00
49122;BME280;35529;44.342;25.944;2023-01-28T08:43:49;100674.59;;;2.49;100.00
49122;BME280;35529;44.342;25.944;2023-01-28T08:46:15;100671.56;;;2.44;100.00
49122;BME280;35529;44.342;25.944;2023-01-28T08:48:41;100665.38;;;2.25;100.00
49122;BME280;35529;44.342;25.944;2023-01-28T08:51:07;100664.41;;;2.16;100.00
49122;BME280;35529;44.342;25.944;2023-01-28T08:53:33;100671.19;;;2.39;100.00
49122;BME280;35529;44.342;25.944;2023-01-28T08:55:59;100672.84;;;2.49;100.00
49122;BME280;35529;44.342;25.944;2023-01-28T08:58:25;100663.72;;;2.34;100.00
49122;BME280;35529;44.342;25.944;2023-01-28T09:00:52;100674.06;;;2.26;100.00
49122;BME280;35529;44.342;25.944;2023-01-28T09:03:18;100673.09;;;2.37;100.00
49122;BME280;35529;44.342;25.944;2023-01-28T09:05:44;100676.94;;;2.13;100.00
49122;BME280;35529;44.342;25.944;2023-01-28T09:08:11;100671.84;;;2.11;100.00
49122;BME280;35529;44.342;25.944;2023-01-28T09:10:38;100671.44;;;2.26;100.00
49122;BME280;35529;44.342;25.944;2023-01-28T09:13:07;100673.91;;;2.37;100.00
49122;BME280;35529;44.342;25.944;2023-01-28T09:15:34;100664.84;;;2.41;100.00
49122;BME280;35529;44.342;25.944;2023-01-28T09:18:00;100670.34;;;2.48;100.00
49122;BME280;35529;44.342;25.944;2023-01-28T09:20:26;100675.06;;;2.34;100.00
49122;BME280;35529;44.342;25.944;2023-01-28T09:22:52;100664.84;;;2.41;100.00
49122;BME280;35529;44.342;25.944;2023-01-28T09:25:19;100661.78;;;2.46;100.00
49122;BME280;35529;44.342;25.944;2023-01-28T09:27:45;100664.53;;;2.54;100.00
49122;BME280;35529;44.342;25.944;2023-01-28T09:30:11;100666.97;;;2.85;100.00
49122;BME280;35529;44.342;25.944;2023-01-28T09:32:38;100659.75;;;3.07;100.00
49122;BME280;35529;44.342;25.944;2023-01-28T09:35:04;100655.78;;;3.30;100.00
49122;BME280;35529;44.342;25.944;2023-01-28T09:37:30;100651.00;;;3.26;100.00
49122;BME280;35529;44.342;25.944;2023-01-28T09:39:56;100656.28;;;3.44;100.00
49122;BME280;35529;44.342;25.944;2023-01-28T09:50:04;100648.97;;;3.75;100.00
49122;BME280;35529;44.342;25.944;2023-01-28T09:52:33;100650.25;;;3.89;100.00
49122;BME280;35529;44.342;25.944;2023-01-28T09:55:14;100648.31;;;4.09;100.00
49122;BME280;35529;44.342;25.944;2023-01-28T09:58:00;100655.13;;;4.20;100.00
49122;BME280;35529;44.342;25.944;2023-01-28T10:00:35;100648.53;;;4.16;100.00
49122;BME280;35529;44.342;25.944;2023-01-28T10:05:59;100650.66;;;4.57;100.00
49122;BME280;35529;44.342;25.944;2023-01-28T10:21:01;100655.50;;;4.43;100.00
49122;BME280;35529;44.342;25.944;2023-01-28T10:23:40;100657.31;;;4.43;100.00
49122;BME280;35529;44.342;25.944;2023-01-28T10:26:12;100649.34;;;4.16;100.00
49122;BME280;35529;44.342;25.944;2023-01-28T10:28:41;100650.47;;;4.14;100.00
49122;BME280;35529;44.342;25.944;2023-01-28T10:31:10;100645.75;;;4.17;100.00
49122;BME280;35529;44.342;25.944;2023-01-28T10:33:48;100645.00;;;4.25;100.00
49122;BME280;35529;44.342;25.944;2023-01-28T10:36:14;100643.13;;;4.35;100.00
49122;BME280;35529;44.342;25.944;2023-01-28T10:38:43;100648.38;;;4.35;100.00
49122;BME280;35529;44.342;25.944;2023-01-28T10:41:09;100646.03;;;4.32;100.00
49122;BME280;35529;44.342;25.944;2023-01-28T10:43:36;100648.38;;;4.17;100.00
49122;BME280;35529;44.342;25.944;2023-01-28T10:46:18;100653.41;;;4.11;100.00
49122;BME280;35529;44.342;25.944;2023-01-28T10:48:47;100642.66;;;4.04;100.00
49122;BME280;35529;44.342;25.944;2023-01-28T10:51:28;100641.94;;;4.12;100.00
49122;BME280;35529;44.342;25.944;2023-01-28T10:53:54;100648.69;;;4.14;100.00
49122;BME280;35529;44.342;25.944;2023-01-28T10:56:25;100649.06;;;4.19;100.00
49122;BME280;35529;44.342;25.944;2023-01-28T10:58:55;100644.03;;;4.26;100.00
49122;BME280;35529;44.342;25.944;2023-01-28T11:01:23;100649.44;;;4.25;100.00
49122;BME280;35529;44.342;25.944;2023-01-28T11:03:57;100643.13;;;4.35;100.00
49122;BME280;35529;44.342;25.944;2023-01-28T11:06:26;100648.88;;;4.39;100.00
49122;BME280;35529;44.342;25.944;2023-01-28T11:08:53;100640.06;;;4.22;100.00
49122;BME280;35529;44.342;25.944;2023-01-28T11:11:23;100645.88;;;4.34;100.00
49122;BME280;35529;44.342;25.944;2023-01-28T11:13:50;100658.34;;;4.50;100.00
49122;BME280;35529;44.342;25.944;2023-01-28T11:16:20;100652.97;;;4.51;100.00
49122;BME280;35529;44.342;25.944;2023-01-28T11:18:49;100651.72;;;4.46;100.00
49122;BME280;35529;44.342;25.944;2023-01-28T11:21:20;100649.66;;;4.31;100.00
49122;BME280;35529;44.342;25.944;2023-01-28T11:23:53;100641.41;;;4.26;100.00
49122;BME280;35529;44.342;25.944;2023-01-28T11:26:24;100644.09;;;4.34;100.00
49122;BME280;35529;44.342;25.944;2023-01-28T11:28:51;100649.56;;;4.41;100.00
49122;BME280;35529;44.342;25.944;2023-01-28T11:31:18;100636.16;;;4.26;100.00
49122;BME280;35529;44.342;25.944;2023-01-28T11:36:24;100632.69;;;4.08;100.00
49122;BME280;35529;44.342;25.944;2023-01-28T11:38:54;100635.31;;;4.08;100.00
49122;BME280;35529;44.342;25.944;2023-01-28T11:41:25;100636.50;;;4.13;100.00
49122;BME280;35529;44.342;25.944;2023-01-28T11:43:52;100638.19;;;4.14;100.00
49122;BME280;35529;44.342;25.944;2023-01-28T11:46:29;100641.41;;;4.26;100.00
49122;BME280;35529;44.342;25.944;2023-01-28T12:01:54;100634.63;;;4.06;100.00
49122;BME280;35529;44.342;25.944;2023-01-28T12:06:58;100639.50;;;4.00;100.00
49122;BME280;35529;44.342;25.944;2023-01-28T12:20:12;100647.69;;;3.79;100.00
49122;BME280;35529;44.342;25.944;2023-01-28T12:28:10;100643.06;;;3.35;100.00
49122;BME280;35529;44.342;25.944;2023-01-28T12:33:37;100644.34;;;3.31;100.00
49122;BME280;35529;44.342;25.944;2023-01-28T12:36:15;100641.88;;;3.20;100.00
49122;BME280;35529;44.342;25.944;2023-01-28T12:41:43;100647.47;;;3.07;100.00
49122;BME280;35529;44.342;25.944;2023-01-28T12:44:28;100646.25;;;3.01;100.00
49122;BME280;35529;44.342;25.944;2023-01-28T12:47:16;100655.63;;;2.94;100.00
49122;BME280;35529;44.342;25.944;2023-01-28T12:53:02;100655.97;;;2.81;100.00
49122;BME280;35529;44.342;25.944;2023-01-28T12:55:43;100657.47;;;2.84;100.00
49122;BME280;35529;44.342;25.944;2023-01-28T12:58:12;100651.28;;;2.75;100.00
49122;BME280;35529;44.342;25.944;2023-01-28T13:00:42;100658.03;;;2.78;100.00
49122;BME280;35529;44.342;25.944;2023-01-28T13:05:58;100658.06;;;2.68;100.00
49122;BME280;35529;44.342;25.944;2023-01-28T13:08:27;100662.59;;;2.66;100.00
49122;BME280;35529;44.342;25.944;2023-01-28T13:10:59;100662.19;;;2.71;100.00
49122;BME280;35529;44.342;25.944;2023-01-28T13:13:30;100662.75;;;2.64;100.00
49122;BME280;35529;44.342;25.944;2023-01-28T13:15:57;100661.22;;;2.62;100.00
49122;BME280;35529;44.342;25.944;2023-01-28T13:18:31;100660.00;;;2.56;100.00
49122;BME280;35529;44.342;25.944;2023-01-28T13:21:02;100663.56;;;2.65;100.00
49122;BME280;35529;44.342;25.944;2023-01-28T13:28:49;100676.97;;;2.52;100.00
49122;BME280;35529;44.342;25.944;2023-01-28T13:31:18;100674.63;;;2.39;100.00
49122;BME280;35529;44.342;25.944;2023-01-28T13:33:48;100673.63;;;2.30;100.00
49122;BME280;35529;44.342;25.944;2023-01-28T13:36:32;100675.03;;;2.25;100.00
49122;BME280;35529;44.342;25.944;2023-01-28T13:39:36;100679.03;;;2.29;100.00
49122;BME280;35529;44.342;25.944;2023-01-28T13:42:39;100686.50;;;2.33;100.00
49122;BME280;35529;44.342;25.944;2023-01-28T13:44:47;100681.66;;;2.39;100.00
49122;BME280;35529;44.342;25.944;2023-01-28T13:47:19;100688.53;;;2.40;100.00
49122;BME280;35529;44.342;25.944;2023-01-28T13:49:47;100685.78;;;2.31;100.00
49122;BME280;35529;44.342;25.944;2023-01-28T13:52:25;100686.88;;;2.29;100.00
49122;BME280;35529;44.342;25.944;2023-01-28T14:03:27;100683.97;;;2.22;100.00
49122;BME280;35529;44.342;25.944;2023-01-28T14:11:07;100685.06;;;2.10;100.00
49122;BME280;35529;44.342;25.944;2023-01-28T14:16:19;100686.84;;;1.99;100.00
49122;BME280;35529;44.342;25.944;2023-01-28T14:18:47;100680.78;;;1.99;100.00
49122;BME280;35529;44.342;25.944;2023-01-28T14:21:17;100681.91;;;2.06;100.00
49122;BME280;35529;44.342;25.944;2023-01-28T14:23:44;100684.13;;;2.11;100.00
49122;BME280;35529;44.342;25.944;2023-01-28T14:26:15;100689.34;;;2.11;100.00
49122;BME280;35529;44.342;25.944;2023-01-28T14:33:39;100691.03;;;2.12;100.00
49122;BME280;35529;44.342;25.944;2023-01-28T14:36:08;100688.22;;;2.04;100.00
49122;BME280;35529;44.342;25.944;2023-01-28T14:38:38;100683.56;;;1.97;100.00
49122;BME280;35529;44.342;25.944;2023-01-28T14:41:06;100686.59;;;2.03;100.00
49122;BME280;35529;44.342;25.944;2023-01-28T14:43:33;100688.94;;;2.06;100.00
49122;BME280;35529;44.342;25.944;2023-01-28T14:46:06;100683.56;;;1.97;100.00
49122;BME280;35529;44.342;25.944;2023-01-28T14:48:43;100675.25;;;1.92;100.00
49122;BME280;35529;44.342;25.944;2023-01-28T14:59:36;100688.72;;;1.68;100.00